sensor_id;sensor_type;location;lat;lon;timestamp;P1;durP1;ratioP1;P2;durP2;ratioP2
77018;SDS011;66044;53.142;17.962;2023-02-15T00:01:44;128.10;;;58.70;;
77018;SDS011;66044;53.142;17.962;2023-02-15T00:04:15;134.10;;;59.80;;
77018;SDS011;66044;53.142;17.962;2023-02-15T00:06:44;151.50;;;59.30;;
77018;SDS011;66044;53.142;17.962;2023-02-15T00:09:10;130.10;;;52.20;;
77018;SDS011;66044;53.142;17.962;2023-02-15T00:11:38;155.40;;;61.30;;
77018;SDS011;66044;53.142;17.962;2023-02-15T00:16:36;165.60;;;66.00;;
77018;SDS011;66044;53.142;17.962;2023-02-15T00:19:04;175.40;;;66.50;;
77018;SDS011;66044;53.142;17.962;2023-02-15T00:21:32;155.10;;;66.10;;
77018;SDS011;66044;53.142;17.962;2023-02-15T00:24:00;124.40;;;57.00;;
77018;SDS011;66044;53.142;17.962;2023-02-15T00:26:28;122.70;;;57.30;;
77018;SDS011;66044;53.142;17.962;2023-02-15T00:28:55;133.10;;;60.80;;
77018;SDS011;66044;53.142;17.962;2023-02-15T00:31:24;153.60;;;68.50;;
77018;SDS011;66044;53.142;17.962;2023-02-15T00:33:51;134.60;;;57.60;;
77018;SDS011;66044;53.142;17.962;2023-02-15T00:36:18;151.30;;;58.10;;
77018;SDS011;66044;53.142;17.962;2023-02-15T00:38:44;137.90;;;56.70;;
77018;SDS011;66044;53.142;17.962;2023-02-15T00:41:10;144.60;;;57.10;;
77018;SDS011;66044;53.142;17.962;2023-02-15T00:43:37;123.60;;;59.10;;
77018;SDS011;66044;53.142;17.962;2023-02-15T00:46:04;157.50;;;69.00;;
77018;SDS011;66044;53.142;17.962;2023-02-15T00:48:31;129.80;;;60.00;;
77018;SDS011;66044;53.142;17.962;2023-02-15T00:50:58;161.30;;;66.10;;
77018;SDS011;66044;53.142;17.962;2023-02-15T00:53:26;191.60;;;75.60;;
77018;SDS011;66044;53.142;17.962;2023-02-15T00:55:53;190.40;;;73.10;;
77018;SDS011;66044;53.142;17.962;2023-02-15T00:58:20;187.90;;;70.40;;
77018;SDS011;66044;53.142;17.962;2023-02-15T01:00:47;192.30;;;74.50;;
77018;SDS011;66044;53.142;17.962;2023-02-15T01:03:14;159.70;;;68.80;;
77018;SDS011;66044;53.142;17.962;2023-02-15T01:05:42;121.60;;;58.10;;
77018;SDS011;66044;53.142;17.962;2023-02-15T01:08:09;119.20;;;53.60;;
77018;SDS011;66044;53.142;17.962;2023-02-15T01:10:35;104.20;;;51.30;;
77018;SDS011;66044;53.142;17.962;2023-02-15T01:13:02;120.40;;;55.90;;
77018;SDS011;66044;53.142;17.962;2023-02-15T01:15:29;114.50;;;53.20;;
77018;SDS011;66044;53.142;17.962;2023-02-15T01:17:56;115.50;;;51.60;;
77018;SDS011;66044;53.142;17.962;2023-02-15T01:20:24;117.90;;;49.40;;
77018;SDS011;66044;53.142;17.962;2023-02-15T01:22:53;128.40;;;56.40;;
77018;SDS011;66044;53.142;17.962;2023-02-15T01:25:20;142.40;;;59.70;;
77018;SDS011;66044;53.142;17.962;2023-02-15T01:27:49;114.60;;;54.90;;
77018;SDS011;66044;53.142;17.962;2023-02-15T01:30:15;117.70;;;58.00;;
77018;SDS011;66044;53.142;17.962;2023-02-15T01:32:42;106.50;;;50.50;;
77018;SDS011;66044;53.142;17.962;2023-02-15T01:35:09;124.80;;;59.40;;
77018;SDS011;66044;53.142;17.962;2023-02-15T01:37:37;136.70;;;64.70;;
77018;SDS011;66044;53.142;17.962;2023-02-15T01:40:04;121.20;;;57.20;;
77018;SDS011;66044;53.142;17.962;2023-02-15T01:42:33;150.80;;;64.50;;
77018;SDS011;66044;53.142;17.962;2023-02-15T01:45:04;124.50;;;57.00;;
77018;SDS011;66044;53.142;17.962;2023-02-15T01:47:45;149.90;;;66.30;;
77018;SDS011;66044;53.142;17.962;2023-02-15T01:50:57;159.20;;;66.30;;
77018;SDS011;66044;53.142;17.962;2023-02-15T01:53:21;148.00;;;67.80;;
77018;SDS011;66044;53.142;17.962;2023-02-15T01:55:57;131.10;;;60.10;;
77018;SDS011;66044;53.142;17.962;2023-02-15T01:58:35;133.40;;;60.90;;
77018;SDS011;66044;53.142;17.962;2023-02-15T02:01:03;132.10;;;60.50;;
77018;SDS011;66044;53.142;17.962;2023-02-15T02:06:15;104.40;;;48.60;;
77018;SDS011;66044;53.142;17.962;2023-02-15T02:08:41;114.10;;;54.40;;
77018;SDS011;66044;53.142;17.962;2023-02-15T02:11:13;140.30;;;60.00;;
77018;SDS011;66044;53.142;17.962;2023-02-15T02:13:40;137.60;;;61.50;;
77018;SDS011;66044;53.142;17.962;2023-02-15T02:25:16;142.20;;;63.70;;
77018;SDS011;66044;53.142;17.962;2023-02-15T02:27:42;152.80;;;64.60;;
77018;SDS011;66044;53.142;17.962;2023-02-15T02:30:20;146.70;;;64.90;;
77018;SDS011;66044;53.142;17.962;2023-02-15T02:38:56;114.70;;;56.40;;
77018;SDS011;66044;53.142;17.962;2023-02-15T02:44:35;122.00;;;55.00;;
77018;SDS011;66044;53.142;17.962;2023-02-15T02:47:18;119.00;;;53.50;;
77018;SDS011;66044;53.142;17.962;2023-02-15T02:49:58;121.80;;;53.50;;
77018;SDS011;66044;53.142;17.962;2023-02-15T02:57:44;83.10;;;43.10;;
77018;SDS011;66044;53.142;17.962;2023-02-15T03:00:18;79.20;;;40.20;;
77018;SDS011;66044;53.142;17.962;2023-02-15T03:02:48;87.10;;;43.40;;
77018;SDS011;66044;53.142;17.962;2023-02-15T03:05:21;86.70;;;43.60;;
77018;SDS011;66044;53.142;17.962;2023-02-15T03:07:52;60.50;;;32.80;;
77018;SDS011;66044;53.142;17.962;2023-02-15T03:10:21;88.20;;;43.00;;
77018;SDS011;66044;53.142;17.962;2023-02-15T03:12:49;68.70;;;33.90;;
77018;SDS011;66044;53.142;17.962;2023-02-15T03:15:25;85.20;;;41.20;;
77018;SDS011;66044;53.142;17.962;2023-02-15T03:18:16;77.00;;;36.80;;
77018;SDS011;66044;53.142;17.962;2023-02-15T03:20:46;66.70;;;33.70;;
77018;SDS011;66044;53.142;17.962;2023-02-15T03:23:15;60.70;;;31.90;;
77018;SDS011;66044;53.142;17.962;2023-02-15T03:25:48;60.60;;;32.00;;
77018;SDS011;66044;53.142;17.962;2023-02-15T03:28:19;54.40;;;28.00;;
77018;SDS011;66044;53.142;17.962;2023-02-15T03:30:51;46.40;;;24.60;;
77018;SDS011;66044;53.142;17.962;2023-02-15T03:33:21;53.40;;;26.40;;
77018;SDS011;66044;53.142;17.962;2023-02-15T03:36:09;54.40;;;27.90;;
77018;SDS011;66044;53.142;17.962;2023-02-15T03:41:56;49.90;;;25.20;;
77018;SDS011;66044;53.142;17.962;2023-02-15T03:44:29;44.00;;;23.50;;
77018;SDS011;66044;53.142;17.962;2023-02-15T03:47:11;48.40;;;23.50;;
77018;SDS011;66044;53.142;17.962;2023-02-15T03:49:52;51.40;;;27.70;;
77018;SDS011;66044;53.142;17.962;2023-02-15T03:52:58;49.60;;;26.10;;
77018;SDS011;66044;53.142;17.962;2023-02-15T03:55:27;48.40;;;25.70;;
77018;SDS011;66044;53.142;17.962;2023-02-15T03:57:55;50.40;;;27.50;;
77018;SDS011;66044;53.142;17.962;2023-02-15T04:00:40;59.50;;;30.20;;
77018;SDS011;66044;53.142;17.962;2023-02-15T04:03:34;57.80;;;27.30;;
77018;SDS011;66044;53.142;17.962;2023-02-15T04:06:06;54.00;;;28.30;;
77018;SDS011;66044;53.142;17.962;2023-02-15T04:08:32;56.10;;;29.00;;
77018;SDS011;66044;53.142;17.962;2023-02-15T04:11:17;47.60;;;24.90;;
77018;SDS011;66044;53.142;17.962;2023-02-15T04:13:43;48.60;;;23.90;;
77018;SDS011;66044;53.142;17.962;2023-02-15T04:16:10;44.90;;;23.40;;
77018;SDS011;66044;53.142;17.962;2023-02-15T04:18:40;51.60;;;25.80;;
77018;SDS011;66044;53.142;17.962;2023-02-15T04:21:30;47.90;;;25.30;;
77018;SDS011;66044;53.142;17.962;2023-02-15T04:24:15;57.20;;;28.20;;
77018;SDS011;66044;53.142;17.962;2023-02-15T04:27:01;60.00;;;29.60;;
77018;SDS011;66044;53.142;17.962;2023-02-15T04:29:29;56.00;;;28.20;;
77018;SDS011;66044;53.142;17.962;2023-02-15T04:31:56;49.80;;;27.10;;
77018;SDS011;66044;53.142;17.962;2023-02-15T04:34:24;45.30;;;25.00;;
77018;SDS011;66044;53.142;17.962;2023-02-15T04:36:50;41.90;;;22.10;;
77018;SDS011;66044;53.142;17.962;2023-02-15T04:39:17;44.00;;;22.30;;
77018;SDS011;66044;53.142;17.962;2023-02-15T04:41:44;46.80;;;23.20;;
77018;SDS011;66044;53.142;17.962;2023-02-15T04:44:11;36.60;;;20.10;;
77018;SDS011;66044;53.142;17.962;2023-02-15T04:46:37;44.80;;;22.60;;
77018;SDS011;66044;53.142;17.962;2023-02-15T04:49:04;37.90;;;19.90;;
77018;SDS011;66044;53.142;17.962;2023-02-15T04:51:30;38.00;;;19.20;;
77018;SDS011;66044;53.142;17.962;2023-02-15T04:53:57;45.00;;;23.00;;
77018;SDS011;66044;53.142;17.962;2023-02-15T04:56:23;38.60;;;18.90;;
77018;SDS011;66044;53.142;17.962;2023-02-15T04:58:50;39.40;;;21.70;;
77018;SDS011;66044;53.142;17.962;2023-02-15T05:01:16;36.00;;;19.50;;
77018;SDS011;66044;53.142;17.962;2023-02-15T05:03:43;38.90;;;19.70;;
77018;SDS011;66044;53.142;17.962;2023-02-15T05:06:09;31.00;;;17.30;;
77018;SDS011;66044;53.142;17.962;2023-02-15T05:08:36;33.30;;;18.20;;
77018;SDS011;66044;53.142;17.962;2023-02-15T05:11:02;40.30;;;21.90;;
77018;SDS011;66044;53.142;17.962;2023-02-15T05:13:29;42.60;;;20.80;;
77018;SDS011;66044;53.142;17.962;2023-02-15T05:15:55;35.00;;;18.10;;
77018;SDS011;66044;53.142;17.962;2023-02-15T05:18:22;44.40;;;21.40;;
77018;SDS011;66044;53.142;17.962;2023-02-15T05:20:48;43.80;;;22.20;;
77018;SDS011;66044;53.142;17.962;2023-02-15T05:23:15;40.00;;;21.90;;
77018;SDS011;66044;53.142;17.962;2023-02-15T05:25:45;48.90;;;23.40;;
77018;SDS011;66044;53.142;17.962;2023-02-15T05:28:31;44.70;;;23.50;;
77018;SDS011;66044;53.142;17.962;2023-02-15T05:33:31;39.20;;;21.20;;
77018;SDS011;66044;53.142;17.962;2023-02-15T05:35:58;41.00;;;21.30;;
77018;SDS011;66044;53.142;17.962;2023-02-15T05:38:24;40.50;;;20.80;;
77018;SDS011;66044;53.142;17.962;2023-02-15T05:40:51;43.60;;;22.80;;
77018;SDS011;66044;53.142;17.962;2023-02-15T05:43:18;60.10;;;26.50;;
77018;SDS011;66044;53.142;17.962;2023-02-15T05:45:46;53.50;;;27.00;;
77018;SDS011;66044;53.142;17.962;2023-02-15T05:48:13;42.90;;;23.00;;
77018;SDS011;66044;53.142;17.962;2023-02-15T05:50:40;40.70;;;20.00;;
77018;SDS011;66044;53.142;17.962;2023-02-15T05:53:06;39.60;;;20.60;;
77018;SDS011;66044;53.142;17.962;2023-02-15T05:55:33;44.80;;;23.90;;
77018;SDS011;66044;53.142;17.962;2023-02-15T05:58:00;49.90;;;23.90;;
77018;SDS011;66044;53.142;17.962;2023-02-15T06:00:26;46.90;;;23.50;;
77018;SDS011;66044;53.142;17.962;2023-02-15T06:02:52;49.90;;;24.00;;
77018;SDS011;66044;53.142;17.962;2023-02-15T06:05:19;50.90;;;25.00;;
77018;SDS011;66044;53.142;17.962;2023-02-15T06:07:45;96.90;;;42.20;;
77018;SDS011;66044;53.142;17.962;2023-02-15T06:10:12;105.00;;;46.10;;
77018;SDS011;66044;53.142;17.962;2023-02-15T06:12:38;85.90;;;43.00;;
77018;SDS011;66044;53.142;17.962;2023-02-15T06:15:05;89.50;;;39.00;;
77018;SDS011;66044;53.142;17.962;2023-02-15T06:17:32;72.60;;;34.50;;
77018;SDS011;66044;53.142;17.962;2023-02-15T06:19:58;59.60;;;29.50;;
77018;SDS011;66044;53.142;17.962;2023-02-15T06:22:25;53.80;;;28.80;;
77018;SDS011;66044;53.142;17.962;2023-02-15T06:24:51;46.40;;;23.10;;
77018;SDS011;66044;53.142;17.962;2023-02-15T06:27:18;50.40;;;24.80;;
77018;SDS011;66044;53.142;17.962;2023-02-15T06:29:44;47.90;;;24.90;;
77018;SDS011;66044;53.142;17.962;2023-02-15T06:32:10;47.60;;;25.40;;
77018;SDS011;66044;53.142;17.962;2023-02-15T06:34:37;48.30;;;25.30;;
77018;SDS011;66044;53.142;17.962;2023-02-15T06:37:03;45.30;;;25.00;;
77018;SDS011;66044;53.142;17.962;2023-02-15T06:39:30;45.30;;;23.80;;
77018;SDS011;66044;53.142;17.962;2023-02-15T06:41:57;48.60;;;26.20;;
77018;SDS011;66044;53.142;17.962;2023-02-15T06:44:24;44.20;;;23.50;;
77018;SDS011;66044;53.142;17.962;2023-02-15T06:46:50;47.50;;;24.60;;
77018;SDS011;66044;53.142;17.962;2023-02-15T06:49:17;35.00;;;18.10;;
77018;SDS011;66044;53.142;17.962;2023-02-15T06:51:43;42.30;;;22.20;;
77018;SDS011;66044;53.142;17.962;2023-02-15T06:54:09;43.80;;;22.00;;
77018;SDS011;66044;53.142;17.962;2023-02-15T06:56:36;32.00;;;17.50;;
77018;SDS011;66044;53.142;17.962;2023-02-15T06:59:02;33.80;;;18.70;;
77018;SDS011;66044;53.142;17.962;2023-02-15T07:01:29;30.30;;;15.60;;
77018;SDS011;66044;53.142;17.962;2023-02-15T07:03:55;29.90;;;15.10;;
77018;SDS011;66044;53.142;17.962;2023-02-15T07:06:22;36.50;;;18.70;;
77018;SDS011;66044;53.142;17.962;2023-02-15T07:08:48;30.20;;;14.90;;
77018;SDS011;66044;53.142;17.962;2023-02-15T07:11:15;36.00;;;17.10;;
77018;SDS011;66044;53.142;17.962;2023-02-15T07:14:00;29.20;;;14.00;;
77018;SDS011;66044;53.142;17.962;2023-02-15T07:16:26;35.40;;;17.90;;
77018;SDS011;66044;53.142;17.962;2023-02-15T07:18:53;32.90;;;17.20;;
77018;SDS011;66044;53.142;17.962;2023-02-15T07:21:19;31.00;;;15.30;;
77018;SDS011;66044;53.142;17.962;2023-02-15T07:23:46;31.70;;;17.00;;
77018;SDS011;66044;53.142;17.962;2023-02-15T07:26:12;30.60;;;16.90;;
77018;SDS011;66044;53.142;17.962;2023-02-15T07:28:38;32.70;;;15.80;;
77018;SDS011;66044;53.142;17.962;2023-02-15T07:31:05;38.00;;;21.40;;
77018;SDS011;66044;53.142;17.962;2023-02-15T07:33:32;29.30;;;15.10;;
77018;SDS011;66044;53.142;17.962;2023-02-15T07:36:00;33.60;;;18.30;;
77018;SDS011;66044;53.142;17.962;2023-02-15T07:38:35;34.70;;;19.70;;
77018;SDS011;66044;53.142;17.962;2023-02-15T07:41:04;42.70;;;21.30;;
77018;SDS011;66044;53.142;17.962;2023-02-15T07:43:37;43.20;;;22.50;;
77018;SDS011;66044;53.142;17.962;2023-02-15T07:46:06;36.00;;;19.10;;
77018;SDS011;66044;53.142;17.962;2023-02-15T07:48:44;36.80;;;19.40;;
77018;SDS011;66044;53.142;17.962;2023-02-15T07:51:11;36.60;;;21.10;;
77018;SDS011;66044;53.142;17.962;2023-02-15T07:53:38;31.90;;;18.10;;
77018;SDS011;66044;53.142;17.962;2023-02-15T07:56:06;32.00;;;18.30;;
77018;SDS011;66044;53.142;17.962;2023-02-15T07:58:35;35.50;;;19.40;;
77018;SDS011;66044;53.142;17.962;2023-02-15T08:01:17;37.90;;;20.50;;
77018;SDS011;66044;53.142;17.962;2023-02-15T08:03:45;42.20;;;21.90;;
77018;SDS011;66044;53.142;17.962;2023-02-15T08:06:12;46.90;;;23.10;;
77018;SDS011;66044;53.142;17.962;2023-02-15T08:08:39;43.50;;;21.90;;
77018;SDS011;66044;53.142;17.962;2023-02-15T08:11:14;46.50;;;23.70;;
77018;SDS011;66044;53.142;17.962;2023-02-15T08:13:53;41.40;;;22.30;;
77018;SDS011;66044;53.142;17.962;2023-02-15T08:16:24;28.90;;;16.10;;
77018;SDS011;66044;53.142;17.962;2023-02-15T08:18:51;39.60;;;21.50;;
77018;SDS011;66044;53.142;17.962;2023-02-15T08:21:19;28.90;;;15.00;;
77018;SDS011;66044;53.142;17.962;2023-02-15T08:23:46;30.70;;;15.30;;
77018;SDS011;66044;53.142;17.962;2023-02-15T08:26:13;22.50;;;12.80;;
77018;SDS011;66044;53.142;17.962;2023-02-15T08:28:40;20.70;;;11.90;;
77018;SDS011;66044;53.142;17.962;2023-02-15T08:31:08;28.70;;;14.70;;
77018;SDS011;66044;53.142;17.962;2023-02-15T08:33:37;25.70;;;13.70;;
77018;SDS011;66044;53.142;17.962;2023-02-15T08:36:05;26.00;;;12.80;;
77018;SDS011;66044;53.142;17.962;2023-02-15T08:38:36;22.80;;;13.10;;
77018;SDS011;66044;53.142;17.962;2023-02-15T08:41:16;23.00;;;12.90;;
77018;SDS011;66044;53.142;17.962;2023-02-15T08:43:48;24.90;;;12.90;;
77018;SDS011;66044;53.142;17.962;2023-02-15T08:46:17;25.50;;;13.40;;
77018;SDS011;66044;53.142;17.962;2023-02-15T08:48:44;23.20;;;13.10;;
77018;SDS011;66044;53.142;17.962;2023-02-15T08:51:12;22.80;;;12.80;;
77018;SDS011;66044;53.142;17.962;2023-02-15T08:53:43;21.00;;;13.10;;
77018;SDS011;66044;53.142;17.962;2023-02-15T08:56:12;25.70;;;13.70;;
77018;SDS011;66044;53.142;17.962;2023-02-15T08:58:38;24.10;;;14.10;;
77018;SDS011;66044;53.142;17.962;2023-02-15T09:01:08;19.80;;;11.40;;
77018;SDS011;66044;53.142;17.962;2023-02-15T09:03:50;24.50;;;12.80;;
77018;SDS011;66044;53.142;17.962;2023-02-15T09:06:21;24.10;;;13.20;;
77018;SDS011;66044;53.142;17.962;2023-02-15T09:08:49;24.90;;;12.70;;
77018;SDS011;66044;53.142;17.962;2023-02-15T09:11:17;26.20;;;12.40;;
77018;SDS011;66044;53.142;17.962;2023-02-15T09:13:51;25.20;;;12.20;;
77018;SDS011;66044;53.142;17.962;2023-02-15T09:16:21;24.40;;;13.30;;
77018;SDS011;66044;53.142;17.962;2023-02-15T09:18:49;19.10;;;11.10;;
77018;SDS011;66044;53.142;17.962;2023-02-15T09:21:17;26.70;;;13.30;;
77018;SDS011;66044;53.142;17.962;2023-02-15T09:23:46;21.80;;;12.40;;
77018;SDS011;66044;53.142;17.962;2023-02-15T09:26:18;19.70;;;10.60;;
77018;SDS011;66044;53.142;17.962;2023-02-15T09:28:46;20.60;;;11.50;;
77018;SDS011;66044;53.142;17.962;2023-02-15T09:31:15;21.10;;;10.90;;
77018;SDS011;66044;53.142;17.962;2023-02-15T09:33:47;20.10;;;9.50;;
77018;SDS011;66044;53.142;17.962;2023-02-15T09:36:21;18.10;;;10.00;;
77018;SDS011;66044;53.142;17.962;2023-02-15T09:49:57;16.60;;;9.30;;
77018;SDS011;66044;53.142;17.962;2023-02-15T09:58:25;18.20;;;9.80;;
77018;SDS011;66044;53.142;17.962;2023-02-15T10:03:41;17.50;;;8.50;;
77018;SDS011;66044;53.142;17.962;2023-02-15T10:12:11;16.20;;;8.20;;
77018;SDS011;66044;53.142;17.962;2023-02-15T10:29:08;17.60;;;9.70;;
77018;SDS011;66044;53.142;17.962;2023-02-15T10:36:51;18.90;;;10.70;;
77018;SDS011;66044;53.142;17.962;2023-02-15T10:39:34;17.40;;;9.60;;
77018;SDS011;66044;53.142;17.962;2023-02-15T10:50:21;22.50;;;11.70;;
77018;SDS011;66044;53.142;17.962;2023-02-15T10:56:19;22.10;;;11.70;;
77018;SDS011;66044;53.142;17.962;2023-02-15T11:04:25;26.60;;;14.10;;
77018;SDS011;66044;53.142;17.962;2023-02-15T11:07:33;27.10;;;14.50;;
77018;SDS011;66044;53.142;17.962;2023-02-15T11:12:50;25.40;;;14.20;;
77018;SDS011;66044;53.142;17.962;2023-02-15T11:15:24;24.90;;;13.80;;
77018;SDS011;66044;53.142;17.962;2023-02-15T11:17:56;30.30;;;16.20;;
77018;SDS011;66044;53.142;17.962;2023-02-15T11:20:30;28.20;;;14.80;;
77018;SDS011;66044;53.142;17.962;2023-02-15T11:23:06;27.60;;;13.80;;
77018;SDS011;66044;53.142;17.962;2023-02-15T11:25:42;32.90;;;16.10;;
77018;SDS011;66044;53.142;17.962;2023-02-15T11:28:17;30.80;;;14.80;;
77018;SDS011;66044;53.142;17.962;2023-02-15T11:30:51;31.60;;;16.60;;
77018;SDS011;66044;53.142;17.962;2023-02-15T11:33:27;29.30;;;14.20;;
77018;SDS011;66044;53.142;17.962;2023-02-15T11:36:03;30.50;;;15.10;;
77018;SDS011;66044;53.142;17.962;2023-02-15T11:38:35;29.00;;;15.20;;
77018;SDS011;66044;53.142;17.962;2023-02-15T11:43:53;27.60;;;13.80;;
77018;SDS011;66044;53.142;17.962;2023-02-15T11:46:21;32.80;;;16.00;;
77018;SDS011;66044;53.142;17.962;2023-02-15T11:48:48;34.40;;;18.40;;
77018;SDS011;66044;53.142;17.962;2023-02-15T11:51:16;31.70;;;16.40;;
77018;SDS011;66044;53.142;17.962;2023-02-15T11:53:45;32.00;;;16.60;;
77018;SDS011;66044;53.142;17.962;2023-02-15T11:56:17;31.10;;;16.20;;
77018;SDS011;66044;53.142;17.962;2023-02-15T12:01:32;28.00;;;15.20;;
77018;SDS011;66044;53.142;17.962;2023-02-15T12:04:04;29.80;;;15.70;;
77018;SDS011;66044;53.142;17.962;2023-02-15T12:06:37;31.80;;;16.50;;
77018;SDS011;66044;53.142;17.962;2023-02-15T12:11:42;29.00;;;16.00;;
77018;SDS011;66044;53.142;17.962;2023-02-15T12:14:09;32.50;;;16.40;;
77018;SDS011;66044;53.142;17.962;2023-02-15T12:16:50;34.10;;;17.60;;
77018;SDS011;66044;53.142;17.962;2023-02-15T12:19:53;34.90;;;17.20;;
77018;SDS011;66044;53.142;17.962;2023-02-15T12:22:20;28.00;;;15.20;;
77018;SDS011;66044;53.142;17.962;2023-02-15T12:24:50;31.00;;;16.60;;
77018;SDS011;66044;53.142;17.962;2023-02-15T12:27:24;27.80;;;13.40;;
77018;SDS011;66044;53.142;17.962;2023-02-15T12:29:57;28.80;;;14.70;;
77018;SDS011;66044;53.142;17.962;2023-02-15T12:32:28;31.50;;;16.00;;
77018;SDS011;66044;53.142;17.962;2023-02-15T12:35:08;26.40;;;13.00;;
77018;SDS011;66044;53.142;17.962;2023-02-15T12:37:39;29.50;;;15.30;;
77018;SDS011;66044;53.142;17.962;2023-02-15T12:40:25;33.70;;;15.70;;
77018;SDS011;66044;53.142;17.962;2023-02-15T12:42:54;28.60;;;15.40;;
77018;SDS011;66044;53.142;17.962;2023-02-15T12:45:31;31.50;;;15.80;;
77018;SDS011;66044;53.142;17.962;2023-02-15T12:50:42;35.20;;;19.10;;
77018;SDS011;66044;53.142;17.962;2023-02-15T12:53:15;34.40;;;17.70;;
77018;SDS011;66044;53.142;17.962;2023-02-15T12:55:55;32.80;;;16.40;;
77018;SDS011;66044;53.142;17.962;2023-02-15T12:58:27;34.10;;;16.20;;
77018;SDS011;66044;53.142;17.962;2023-02-15T13:03:35;39.90;;;18.80;;
77018;SDS011;66044;53.142;17.962;2023-02-15T13:06:03;32.90;;;17.50;;
77018;SDS011;66044;53.142;17.962;2023-02-15T13:08:34;37.70;;;18.90;;
77018;SDS011;66044;53.142;17.962;2023-02-15T13:11:11;31.60;;;16.00;;
77018;SDS011;66044;53.142;17.962;2023-02-15T13:13:45;34.70;;;17.90;;
77018;SDS011;66044;53.142;17.962;2023-02-15T13:16:19;33.90;;;17.70;;
77018;SDS011;66044;53.142;17.962;2023-02-15T13:18:54;34.70;;;17.70;;
77018;SDS011;66044;53.142;17.962;2023-02-15T13:21:23;30.90;;;14.90;;
77018;SDS011;66044;53.142;17.962;2023-02-15T13:23:57;32.30;;;16.60;;
77018;SDS011;66044;53.142;17.962;2023-02-15T13:26:29;33.20;;;16.40;;
77018;SDS011;66044;53.142;17.962;2023-02-15T13:28:59;34.70;;;15.70;;
77018;SDS011;66044;53.142;17.962;2023-02-15T13:31:31;33.70;;;16.60;;
77018;SDS011;66044;53.142;17.962;2023-02-15T13:34:33;34.50;;;16.90;;
77018;SDS011;66044;53.142;17.962;2023-02-15T13:37:01;34.70;;;16.50;;
77018;SDS011;66044;53.142;17.962;2023-02-15T13:47:27;31.30;;;15.00;;
77018;SDS011;66044;53.142;17.962;2023-02-15T13:50:07;32.20;;;17.30;;
77018;SDS011;66044;53.142;17.962;2023-02-15T13:52:47;35.90;;;17.80;;
77018;SDS011;66044;53.142;17.962;2023-02-15T13:55:27;37.60;;;16.40;;
77018;SDS011;66044;53.142;17.962;2023-02-15T14:00:40;40.20;;;18.90;;
77018;SDS011;66044;53.142;17.962;2023-02-15T14:03:31;40.30;;;18.90;;
77018;SDS011;66044;53.142;17.962;2023-02-15T14:11:56;41.60;;;18.60;;
77018;SDS011;66044;53.142;17.962;2023-02-15T14:14:40;44.00;;;20.30;;
77018;SDS011;66044;53.142;17.962;2023-02-15T14:17:31;45.00;;;20.50;;
77018;SDS011;66044;53.142;17.962;2023-02-15T14:23:07;45.80;;;20.70;;
77018;SDS011;66044;53.142;17.962;2023-02-15T14:25:45;47.00;;;21.10;;
77018;SDS011;66044;53.142;17.962;2023-02-15T14:28:19;46.10;;;21.60;;
77018;SDS011;66044;53.142;17.962;2023-02-15T14:30:54;47.00;;;21.60;;
77018;SDS011;66044;53.142;17.962;2023-02-15T14:33:34;41.00;;;19.90;;
77018;SDS011;66044;53.142;17.962;2023-02-15T14:36:05;40.30;;;19.60;;
77018;SDS011;66044;53.142;17.962;2023-02-15T14:38:39;41.80;;;21.50;;
77018;SDS011;66044;53.142;17.962;2023-02-15T14:41:18;46.90;;;21.60;;
77018;SDS011;66044;53.142;17.962;2023-02-15T14:46:37;44.20;;;20.40;;
77018;SDS011;66044;53.142;17.962;2023-02-15T14:49:12;45.90;;;20.00;;
77018;SDS011;66044;53.142;17.962;2023-02-15T14:56:44;44.40;;;19.90;;
77018;SDS011;66044;53.142;17.962;2023-02-15T15:01:38;38.90;;;16.70;;
77018;SDS011;66044;53.142;17.962;2023-02-15T15:04:10;36.80;;;18.00;;
77018;SDS011;66044;53.142;17.962;2023-02-15T15:06:56;44.30;;;22.10;;
77018;SDS011;66044;53.142;17.962;2023-02-15T15:09:27;33.80;;;15.50;;
77018;SDS011;66044;53.142;17.962;2023-02-15T15:11:55;40.30;;;19.50;;
77018;SDS011;66044;53.142;17.962;2023-02-15T15:14:42;48.20;;;22.70;;
77018;SDS011;66044;53.142;17.962;2023-02-15T15:17:10;41.30;;;19.90;;
77018;SDS011;66044;53.142;17.962;2023-02-15T15:22:20;43.10;;;20.30;;
77018;SDS011;66044;53.142;17.962;2023-02-15T15:49:43;40.60;;;19.40;;
77018;SDS011;66044;53.142;17.962;2023-02-15T15:52:19;36.50;;;18.40;;
77018;SDS011;66044;53.142;17.962;2023-02-15T15:54:51;40.40;;;18.00;;
77018;SDS011;66044;53.142;17.962;2023-02-15T15:57:34;41.40;;;21.10;;
77018;SDS011;66044;53.142;17.962;2023-02-15T16:00:18;40.30;;;19.30;;
77018;SDS011;66044;53.142;17.962;2023-02-15T16:02:55;40.60;;;19.00;;
77018;SDS011;66044;53.142;17.962;2023-02-15T16:05:22;38.30;;;18.00;;
77018;SDS011;66044;53.142;17.962;2023-02-15T16:07:49;40.10;;;19.50;;
77018;SDS011;66044;53.142;17.962;2023-02-15T16:10:36;34.10;;;16.90;;
77018;SDS011;66044;53.142;17.962;2023-02-15T16:13:04;37.40;;;18.10;;
77018;SDS011;66044;53.142;17.962;2023-02-15T16:16:19;32.40;;;16.60;;
77018;SDS011;66044;53.142;17.962;2023-02-15T16:18:23;38.40;;;17.20;;
77018;SDS011;66044;53.142;17.962;2023-02-15T16:20:53;39.40;;;21.10;;
77018;SDS011;66044;53.142;17.962;2023-02-15T16:29:17;40.10;;;19.10;;
77018;SDS011;66044;53.142;17.962;2023-02-15T16:32:02;38.00;;;19.70;;
77018;SDS011;66044;53.142;17.962;2023-02-15T16:34:32;35.10;;;16.80;;
77018;SDS011;66044;53.142;17.962;2023-02-15T16:37:14;41.30;;;19.10;;
77018;SDS011;66044;53.142;17.962;2023-02-15T16:39:45;60.50;;;27.40;;
77018;SDS011;66044;53.142;17.962;2023-02-15T16:42:14;50.60;;;22.80;;
77018;SDS011;66044;53.142;17.962;2023-02-15T16:44:41;61.90;;;29.20;;
77018;SDS011;66044;53.142;17.962;2023-02-15T16:47:20;45.90;;;22.20;;
77018;SDS011;66044;53.142;17.962;2023-02-15T16:49:51;47.90;;;22.50;;
77018;SDS011;66044;53.142;17.962;2023-02-15T16:52:23;46.10;;;20.00;;
77018;SDS011;66044;53.142;17.962;2023-02-15T16:54:54;42.80;;;18.30;;
77018;SDS011;66044;53.142;17.962;2023-02-15T16:57:24;45.50;;;21.20;;
77018;SDS011;66044;53.142;17.962;2023-02-15T16:59:53;46.50;;;22.40;;
77018;SDS011;66044;53.142;17.962;2023-02-15T17:02:27;43.30;;;19.80;;
77018;SDS011;66044;53.142;17.962;2023-02-15T17:07:42;52.00;;;25.20;;
77018;SDS011;66044;53.142;17.962;2023-02-15T17:13:27;39.50;;;19.30;;
77018;SDS011;66044;53.142;17.962;2023-02-15T17:18:24;40.50;;;19.20;;
77018;SDS011;66044;53.142;17.962;2023-02-15T17:20:55;51.80;;;23.70;;
77018;SDS011;66044;53.142;17.962;2023-02-15T17:23:32;46.10;;;20.60;;
77018;SDS011;66044;53.142;17.962;2023-02-15T17:26:02;38.20;;;18.40;;
77018;SDS011;66044;53.142;17.962;2023-02-15T17:28:48;43.10;;;20.30;;
77018;SDS011;66044;53.142;17.962;2023-02-15T17:31:20;34.10;;;17.00;;
77018;SDS011;66044;53.142;17.962;2023-02-15T17:33:47;42.00;;;19.10;;
77018;SDS011;66044;53.142;17.962;2023-02-15T17:36:14;48.00;;;22.30;;